sensor_id;sensor_type;location;lat;lon;timestamp;P1;durP1;ratioP1;P2;durP2;ratioP2
51758;SDS011;66684;47.568;18.734;2023-04-24T00:00:20;8.52;;;4.95;;
51758;SDS011;66684;47.568;18.734;2023-04-24T00:02:46;7.70;;;5.15;;
51758;SDS011;66684;47.568;18.734;2023-04-24T00:05:12;8.35;;;5.53;;
51758;SDS011;66684;47.568;18.734;2023-04-24T00:07:39;10.48;;;4.53;;
51758;SDS011;66684;47.568;18.734;2023-04-24T00:10:09;7.57;;;5.20;;
51758;SDS011;66684;47.568;18.734;2023-04-24T00:12:36;8.43;;;5.22;;
51758;SDS011;66684;47.568;18.734;2023-04-24T00:15:03;9.32;;;5.12;;
51758;SDS011;66684;47.568;18.734;2023-04-24T00:17:29;8.25;;;5.37;;
51758;SDS011;66684;47.568;18.734;2023-04-24T00:19:56;11.90;;;6.25;;
51758;SDS011;66684;47.568;18.734;2023-04-24T00:22:24;9.90;;;6.20;;
51758;SDS011;66684;47.568;18.734;2023-04-24T00:24:50;6.80;;;5.20;;
51758;SDS011;66684;47.568;18.734;2023-04-24T00:27:16;11.60;;;5.80;;
51758;SDS011;66684;47.568;18.734;2023-04-24T00:29:42;10.57;;;5.72;;
51758;SDS011;66684;47.568;18.734;2023-04-24T00:32:08;11.80;;;5.57;;
51758;SDS011;66684;47.568;18.734;2023-04-24T00:34:34;9.52;;;5.22;;
51758;SDS011;66684;47.568;18.734;2023-04-24T00:37:00;7.15;;;5.37;;
51758;SDS011;66684;47.568;18.734;2023-04-24T00:39:26;12.85;;;5.93;;
51758;SDS011;66684;47.568;18.734;2023-04-24T00:41:52;14.87;;;5.82;;
51758;SDS011;66684;47.568;18.734;2023-04-24T00:44:19;9.43;;;5.55;;
51758;SDS011;66684;47.568;18.734;2023-04-24T00:46:45;8.00;;;5.62;;
51758;SDS011;66684;47.568;18.734;2023-04-24T00:49:13;9.60;;;5.65;;
51758;SDS011;66684;47.568;18.734;2023-04-24T00:51:39;12.18;;;7.20;;
51758;SDS011;66684;47.568;18.734;2023-04-24T00:54:06;12.25;;;6.72;;
51758;SDS011;66684;47.568;18.734;2023-04-24T00:56:32;14.27;;;6.50;;
51758;SDS011;66684;47.568;18.734;2023-04-24T00:58:58;13.27;;;6.82;;
51758;SDS011;66684;47.568;18.734;2023-04-24T01:01:24;10.10;;;6.55;;
51758;SDS011;66684;47.568;18.734;2023-04-24T01:03:51;12.48;;;7.10;;
51758;SDS011;66684;47.568;18.734;2023-04-24T01:06:18;11.48;;;7.20;;
51758;SDS011;66684;47.568;18.734;2023-04-24T01:08:45;13.57;;;7.28;;
51758;SDS011;66684;47.568;18.734;2023-04-24T01:11:13;10.05;;;7.20;;
51758;SDS011;66684;47.568;18.734;2023-04-24T01:13:39;13.93;;;8.02;;
51758;SDS011;66684;47.568;18.734;2023-04-24T01:16:06;14.30;;;8.48;;
51758;SDS011;66684;47.568;18.734;2023-04-24T01:18:32;8.98;;;7.30;;
51758;SDS011;66684;47.568;18.734;2023-04-24T01:20:59;14.20;;;8.43;;
51758;SDS011;66684;47.568;18.734;2023-04-24T01:23:28;12.43;;;7.95;;
51758;SDS011;66684;47.568;18.734;2023-04-24T01:25:54;10.88;;;7.65;;
51758;SDS011;66684;47.568;18.734;2023-04-24T01:28:20;10.98;;;7.15;;
51758;SDS011;66684;47.568;18.734;2023-04-24T01:30:47;12.07;;;6.90;;
51758;SDS011;66684;47.568;18.734;2023-04-24T01:33:13;11.50;;;7.55;;
51758;SDS011;66684;47.568;18.734;2023-04-24T01:35:39;24.87;;;7.60;;
51758;SDS011;66684;47.568;18.734;2023-04-24T01:38:06;14.65;;;7.65;;
51758;SDS011;66684;47.568;18.734;2023-04-24T01:40:32;11.45;;;7.00;;
51758;SDS011;66684;47.568;18.734;2023-04-24T01:42:58;10.57;;;6.93;;
51758;SDS011;66684;47.568;18.734;2023-04-24T01:45:24;11.45;;;8.20;;
51758;SDS011;66684;47.568;18.734;2023-04-24T01:47:50;12.55;;;7.47;;
51758;SDS011;66684;47.568;18.734;2023-04-24T01:50:16;13.98;;;7.45;;
51758;SDS011;66684;47.568;18.734;2023-04-24T01:52:43;11.20;;;7.97;;
51758;SDS011;66684;47.568;18.734;2023-04-24T01:55:09;11.48;;;7.50;;
51758;SDS011;66684;47.568;18.734;2023-04-24T01:57:36;12.15;;;7.47;;
51758;SDS011;66684;47.568;18.734;2023-04-24T02:00:02;13.23;;;8.38;;
51758;SDS011;66684;47.568;18.734;2023-04-24T02:02:30;11.90;;;7.82;;
51758;SDS011;66684;47.568;18.734;2023-04-24T02:04:56;11.15;;;7.37;;
51758;SDS011;66684;47.568;18.734;2023-04-24T02:07:22;14.60;;;8.13;;
51758;SDS011;66684;47.568;18.734;2023-04-24T02:09:48;12.55;;;7.60;;
51758;SDS011;66684;47.568;18.734;2023-04-24T02:12:14;15.02;;;7.90;;
51758;SDS011;66684;47.568;18.734;2023-04-24T02:14:43;11.95;;;8.07;;
51758;SDS011;66684;47.568;18.734;2023-04-24T02:17:09;17.75;;;8.48;;
51758;SDS011;66684;47.568;18.734;2023-04-24T02:19:37;12.25;;;7.50;;
51758;SDS011;66684;47.568;18.734;2023-04-24T02:22:04;11.07;;;7.90;;
51758;SDS011;66684;47.568;18.734;2023-04-24T02:24:30;12.43;;;8.23;;
51758;SDS011;66684;47.568;18.734;2023-04-24T02:26:56;12.70;;;7.90;;
51758;SDS011;66684;47.568;18.734;2023-04-24T02:29:23;16.10;;;8.23;;
51758;SDS011;66684;47.568;18.734;2023-04-24T02:31:49;12.40;;;8.13;;
51758;SDS011;66684;47.568;18.734;2023-04-24T02:34:15;12.60;;;8.10;;
51758;SDS011;66684;47.568;18.734;2023-04-24T02:36:41;13.02;;;7.65;;
51758;SDS011;66684;47.568;18.734;2023-04-24T02:39:07;13.38;;;7.87;;
51758;SDS011;66684;47.568;18.734;2023-04-24T02:41:33;11.20;;;6.70;;
51758;SDS011;66684;47.568;18.734;2023-04-24T02:43:59;10.60;;;6.97;;
51758;SDS011;66684;47.568;18.734;2023-04-24T02:46:25;9.70;;;6.30;;
51758;SDS011;66684;47.568;18.734;2023-04-24T02:48:51;9.40;;;6.53;;
51758;SDS011;66684;47.568;18.734;2023-04-24T02:51:17;7.57;;;5.80;;
51758;SDS011;66684;47.568;18.734;2023-04-24T02:53:43;9.63;;;6.20;;
51758;SDS011;66684;47.568;18.734;2023-04-24T02:56:09;11.18;;;6.55;;
51758;SDS011;66684;47.568;18.734;2023-04-24T02:58:37;8.18;;;5.97;;
51758;SDS011;66684;47.568;18.734;2023-04-24T03:01:03;11.02;;;6.25;;
51758;SDS011;66684;47.568;18.734;2023-04-24T03:03:30;10.23;;;6.28;;
51758;SDS011;66684;47.568;18.734;2023-04-24T03:05:56;9.38;;;6.57;;
51758;SDS011;66684;47.568;18.734;2023-04-24T03:08:22;10.05;;;6.35;;
51758;SDS011;66684;47.568;18.734;2023-04-24T03:10:48;8.48;;;6.18;;
51758;SDS011;66684;47.568;18.734;2023-04-24T03:13:15;8.90;;;6.20;;
51758;SDS011;66684;47.568;18.734;2023-04-24T03:15:42;8.15;;;6.00;;
51758;SDS011;66684;47.568;18.734;2023-04-24T03:18:08;7.68;;;6.28;;
51758;SDS011;66684;47.568;18.734;2023-04-24T03:20:33;11.77;;;6.07;;
51758;SDS011;66684;47.568;18.734;2023-04-24T03:22:59;7.82;;;5.90;;
51758;SDS011;66684;47.568;18.734;2023-04-24T03:25:26;10.57;;;6.25;;
51758;SDS011;66684;47.568;18.734;2023-04-24T03:27:51;11.95;;;5.93;;
51758;SDS011;66684;47.568;18.734;2023-04-24T03:30:17;9.55;;;5.78;;
51758;SDS011;66684;47.568;18.734;2023-04-24T03:32:43;10.50;;;6.00;;
51758;SDS011;66684;47.568;18.734;2023-04-24T03:35:09;16.30;;;6.72;;
51758;SDS011;66684;47.568;18.734;2023-04-24T03:37:35;11.70;;;5.82;;
51758;SDS011;66684;47.568;18.734;2023-04-24T03:40:01;7.72;;;5.45;;
51758;SDS011;66684;47.568;18.734;2023-04-24T03:42:27;11.40;;;7.50;;
51758;SDS011;66684;47.568;18.734;2023-04-24T03:44:53;9.50;;;6.65;;
51758;SDS011;66684;47.568;18.734;2023-04-24T03:47:19;10.10;;;6.10;;
51758;SDS011;66684;47.568;18.734;2023-04-24T03:49:45;8.68;;;6.10;;
51758;SDS011;66684;47.568;18.734;2023-04-24T03:52:11;8.73;;;6.18;;
51758;SDS011;66684;47.568;18.734;2023-04-24T03:54:37;8.93;;;6.20;;
51758;SDS011;66684;47.568;18.734;2023-04-24T03:57:03;9.45;;;6.20;;
51758;SDS011;66684;47.568;18.734;2023-04-24T03:59:30;8.95;;;6.00;;
51758;SDS011;66684;47.568;18.734;2023-04-24T04:01:56;10.45;;;6.72;;
51758;SDS011;66684;47.568;18.734;2023-04-24T04:04:22;10.25;;;6.30;;
51758;SDS011;66684;47.568;18.734;2023-04-24T04:06:48;6.85;;;5.50;;
51758;SDS011;66684;47.568;18.734;2023-04-24T04:09:14;10.30;;;7.25;;
51758;SDS011;66684;47.568;18.734;2023-04-24T04:11:40;11.43;;;6.45;;
51758;SDS011;66684;47.568;18.734;2023-04-24T04:14:06;8.20;;;5.82;;
51758;SDS011;66684;47.568;18.734;2023-04-24T04:16:32;12.57;;;5.25;;
51758;SDS011;66684;47.568;18.734;2023-04-24T04:18:58;9.60;;;5.62;;
51758;SDS011;66684;47.568;18.734;2023-04-24T04:21:24;7.85;;;5.97;;
51758;SDS011;66684;47.568;18.734;2023-04-24T04:23:52;13.88;;;6.47;;
51758;SDS011;66684;47.568;18.734;2023-04-24T04:26:17;11.90;;;6.32;;
51758;SDS011;66684;47.568;18.734;2023-04-24T04:28:44;11.80;;;6.72;;
51758;SDS011;66684;47.568;18.734;2023-04-24T04:31:10;8.90;;;6.90;;
51758;SDS011;66684;47.568;18.734;2023-04-24T04:33:36;12.37;;;7.45;;
51758;SDS011;66684;47.568;18.734;2023-04-24T04:36:03;10.55;;;7.10;;
51758;SDS011;66684;47.568;18.734;2023-04-24T04:38:29;9.32;;;7.10;;
51758;SDS011;66684;47.568;18.734;2023-04-24T04:40:55;9.70;;;7.22;;
51758;SDS011;66684;47.568;18.734;2023-04-24T04:43:24;9.95;;;6.95;;
51758;SDS011;66684;47.568;18.734;2023-04-24T04:45:51;12.35;;;6.97;;
51758;SDS011;66684;47.568;18.734;2023-04-24T04:48:17;11.60;;;7.65;;
51758;SDS011;66684;47.568;18.734;2023-04-24T04:50:44;12.60;;;7.40;;
51758;SDS011;66684;47.568;18.734;2023-04-24T04:53:10;10.30;;;7.07;;
51758;SDS011;66684;47.568;18.734;2023-04-24T04:55:36;14.87;;;7.25;;
51758;SDS011;66684;47.568;18.734;2023-04-24T04:58:03;8.43;;;6.43;;
51758;SDS011;66684;47.568;18.734;2023-04-24T05:00:29;12.73;;;7.07;;
51758;SDS011;66684;47.568;18.734;2023-04-24T05:02:59;12.18;;;7.28;;
51758;SDS011;66684;47.568;18.734;2023-04-24T05:05:25;12.77;;;7.70;;
51758;SDS011;66684;47.568;18.734;2023-04-24T05:07:51;11.27;;;7.50;;
51758;SDS011;66684;47.568;18.734;2023-04-24T05:10:17;13.93;;;7.87;;
51758;SDS011;66684;47.568;18.734;2023-04-24T05:12:43;11.48;;;8.13;;
51758;SDS011;66684;47.568;18.734;2023-04-24T05:15:09;10.38;;;7.80;;
51758;SDS011;66684;47.568;18.734;2023-04-24T05:17:35;10.65;;;7.62;;
51758;SDS011;66684;47.568;18.734;2023-04-24T05:20:02;11.40;;;7.72;;
51758;SDS011;66684;47.568;18.734;2023-04-24T05:22:31;10.48;;;6.85;;
51758;SDS011;66684;47.568;18.734;2023-04-24T05:24:57;11.18;;;7.30;;
51758;SDS011;66684;47.568;18.734;2023-04-24T05:27:23;11.18;;;6.90;;
51758;SDS011;66684;47.568;18.734;2023-04-24T05:29:50;13.48;;;6.78;;
51758;SDS011;66684;47.568;18.734;2023-04-24T05:32:16;14.30;;;6.90;;
51758;SDS011;66684;47.568;18.734;2023-04-24T05:34:42;16.30;;;8.88;;
51758;SDS011;66684;47.568;18.734;2023-04-24T05:37:08;12.90;;;7.70;;
51758;SDS011;66684;47.568;18.734;2023-04-24T05:39:35;13.45;;;7.93;;
51758;SDS011;66684;47.568;18.734;2023-04-24T05:42:02;14.70;;;8.05;;
51758;SDS011;66684;47.568;18.734;2023-04-24T05:44:30;14.07;;;7.78;;
51758;SDS011;66684;47.568;18.734;2023-04-24T05:46:56;11.82;;;8.50;;
51758;SDS011;66684;47.568;18.734;2023-04-24T05:49:22;13.38;;;8.38;;
51758;SDS011;66684;47.568;18.734;2023-04-24T05:51:48;15.60;;;8.00;;
51758;SDS011;66684;47.568;18.734;2023-04-24T05:54:14;16.42;;;8.32;;
51758;SDS011;66684;47.568;18.734;2023-04-24T05:56:40;13.25;;;8.27;;
51758;SDS011;66684;47.568;18.734;2023-04-24T05:59:06;13.85;;;8.10;;
51758;SDS011;66684;47.568;18.734;2023-04-24T06:01:33;12.27;;;8.73;;
51758;SDS011;66684;47.568;18.734;2023-04-24T06:03:59;13.38;;;8.75;;
51758;SDS011;66684;47.568;18.734;2023-04-24T06:06:25;14.57;;;9.23;;
51758;SDS011;66684;47.568;18.734;2023-04-24T06:08:52;15.60;;;8.35;;
51758;SDS011;66684;47.568;18.734;2023-04-24T06:11:18;12.48;;;8.38;;
51758;SDS011;66684;47.568;18.734;2023-04-24T06:13:44;12.20;;;9.18;;
51758;SDS011;66684;47.568;18.734;2023-04-24T06:16:10;12.68;;;8.55;;
51758;SDS011;66684;47.568;18.734;2023-04-24T06:18:36;16.08;;;8.90;;
51758;SDS011;66684;47.568;18.734;2023-04-24T06:21:03;11.95;;;8.50;;
51758;SDS011;66684;47.568;18.734;2023-04-24T06:23:30;13.10;;;8.02;;
51758;SDS011;66684;47.568;18.734;2023-04-24T06:25:58;12.40;;;8.00;;
51758;SDS011;66684;47.568;18.734;2023-04-24T06:28:25;12.37;;;7.93;;
51758;SDS011;66684;47.568;18.734;2023-04-24T06:30:51;14.20;;;9.15;;
51758;SDS011;66684;47.568;18.734;2023-04-24T06:33:17;14.55;;;8.43;;
51758;SDS011;66684;47.568;18.734;2023-04-24T06:35:43;11.80;;;8.35;;
51758;SDS011;66684;47.568;18.734;2023-04-24T06:38:09;11.07;;;8.98;;
51758;SDS011;66684;47.568;18.734;2023-04-24T06:40:35;12.30;;;8.77;;
51758;SDS011;66684;47.568;18.734;2023-04-24T06:43:01;14.50;;;10.23;;
51758;SDS011;66684;47.568;18.734;2023-04-24T06:45:28;15.80;;;9.75;;
51758;SDS011;66684;47.568;18.734;2023-04-24T06:47:55;19.95;;;9.55;;
51758;SDS011;66684;47.568;18.734;2023-04-24T06:50:21;11.90;;;9.77;;
51758;SDS011;66684;47.568;18.734;2023-04-24T06:52:47;15.15;;;9.07;;
51758;SDS011;66684;47.568;18.734;2023-04-24T06:55:13;14.10;;;8.60;;
51758;SDS011;66684;47.568;18.734;2023-04-24T06:57:40;12.05;;;8.98;;
51758;SDS011;66684;47.568;18.734;2023-04-24T07:00:06;14.35;;;9.60;;
51758;SDS011;66684;47.568;18.734;2023-04-24T07:02:34;11.70;;;8.60;;
51758;SDS011;66684;47.568;18.734;2023-04-24T07:05:00;12.15;;;9.50;;
51758;SDS011;66684;47.568;18.734;2023-04-24T07:07:26;13.95;;;9.70;;
51758;SDS011;66684;47.568;18.734;2023-04-24T07:09:53;12.30;;;8.93;;
51758;SDS011;66684;47.568;18.734;2023-04-24T07:12:19;15.07;;;9.25;;
51758;SDS011;66684;47.568;18.734;2023-04-24T07:14:47;14.90;;;9.52;;
51758;SDS011;66684;47.568;18.734;2023-04-24T07:17:13;15.25;;;9.60;;
51758;SDS011;66684;47.568;18.734;2023-04-24T07:19:40;16.40;;;10.05;;
51758;SDS011;66684;47.568;18.734;2023-04-24T07:22:06;14.38;;;9.80;;
51758;SDS011;66684;47.568;18.734;2023-04-24T07:24:32;14.98;;;9.35;;
51758;SDS011;66684;47.568;18.734;2023-04-24T07:26:58;13.88;;;9.63;;
51758;SDS011;66684;47.568;18.734;2023-04-24T07:29:24;15.52;;;8.32;;
51758;SDS011;66684;47.568;18.734;2023-04-24T07:31:50;15.07;;;8.73;;
51758;SDS011;66684;47.568;18.734;2023-04-24T07:34:16;13.35;;;9.60;;
51758;SDS011;66684;47.568;18.734;2023-04-24T07:36:42;11.25;;;8.43;;
51758;SDS011;66684;47.568;18.734;2023-04-24T07:39:08;12.70;;;8.88;;
51758;SDS011;66684;47.568;18.734;2023-04-24T07:41:34;15.55;;;9.07;;
51758;SDS011;66684;47.568;18.734;2023-04-24T07:44:00;16.60;;;9.20;;
51758;SDS011;66684;47.568;18.734;2023-04-24T07:46:26;13.20;;;9.27;;
51758;SDS011;66684;47.568;18.734;2023-04-24T07:48:55;13.55;;;9.32;;
51758;SDS011;66684;47.568;18.734;2023-04-24T07:51:21;18.25;;;10.85;;
51758;SDS011;66684;47.568;18.734;2023-04-24T07:53:47;11.25;;;8.70;;
51758;SDS011;66684;47.568;18.734;2023-04-24T07:56:13;12.27;;;8.32;;
51758;SDS011;66684;47.568;18.734;2023-04-24T07:58:39;14.55;;;8.23;;
51758;SDS011;66684;47.568;18.734;2023-04-24T08:01:05;13.02;;;7.70;;
51758;SDS011;66684;47.568;18.734;2023-04-24T08:03:31;11.65;;;8.32;;
51758;SDS011;66684;47.568;18.734;2023-04-24T08:05:57;13.70;;;6.32;;
51758;SDS011;66684;47.568;18.734;2023-04-24T08:08:23;11.93;;;6.80;;
51758;SDS011;66684;47.568;18.734;2023-04-24T08:10:50;7.95;;;6.25;;
51758;SDS011;66684;47.568;18.734;2023-04-24T08:13:16;9.23;;;6.03;;
51758;SDS011;66684;47.568;18.734;2023-04-24T08:15:42;9.07;;;5.78;;
51758;SDS011;66684;47.568;18.734;2023-04-24T08:18:08;9.30;;;6.37;;
51758;SDS011;66684;47.568;18.734;2023-04-24T08:20:34;10.68;;;6.65;;
51758;SDS011;66684;47.568;18.734;2023-04-24T08:23:00;11.65;;;7.18;;
51758;SDS011;66684;47.568;18.734;2023-04-24T08:25:26;10.25;;;6.30;;
51758;SDS011;66684;47.568;18.734;2023-04-24T08:27:52;11.40;;;6.55;;
51758;SDS011;66684;47.568;18.734;2023-04-24T08:30:18;12.50;;;6.40;;
51758;SDS011;66684;47.568;18.734;2023-04-24T08:32:44;8.23;;;5.72;;
51758;SDS011;66684;47.568;18.734;2023-04-24T08:35:10;9.52;;;7.35;;
51758;SDS011;66684;47.568;18.734;2023-04-24T08:37:36;11.88;;;7.80;;
51758;SDS011;66684;47.568;18.734;2023-04-24T08:40:07;12.82;;;8.32;;
51758;SDS011;66684;47.568;18.734;2023-04-24T08:42:39;12.80;;;8.15;;
51758;SDS011;66684;47.568;18.734;2023-04-24T08:45:08;16.85;;;8.30;;
51758;SDS011;66684;47.568;18.734;2023-04-24T08:47:35;13.32;;;7.35;;
51758;SDS011;66684;47.568;18.734;2023-04-24T08:50:03;12.85;;;7.45;;
51758;SDS011;66684;47.568;18.734;2023-04-24T08:52:34;13.30;;;7.37;;
51758;SDS011;66684;47.568;18.734;2023-04-24T08:55:00;10.23;;;7.12;;
51758;SDS011;66684;47.568;18.734;2023-04-24T08:57:27;9.68;;;6.90;;
51758;SDS011;66684;47.568;18.734;2023-04-24T08:59:54;11.25;;;6.70;;
51758;SDS011;66684;47.568;18.734;2023-04-24T09:02:23;10.32;;;6.57;;
51758;SDS011;66684;47.568;18.734;2023-04-24T09:04:49;7.35;;;6.10;;
51758;SDS011;66684;47.568;18.734;2023-04-24T09:07:16;10.32;;;6.85;;
51758;SDS011;66684;47.568;18.734;2023-04-24T09:09:43;9.15;;;6.18;;
51758;SDS011;66684;47.568;18.734;2023-04-24T09:12:10;10.10;;;5.75;;
51758;SDS011;66684;47.568;18.734;2023-04-24T09:14:37;8.25;;;6.47;;
51758;SDS011;66684;47.568;18.734;2023-04-24T09:17:10;8.63;;;6.25;;
51758;SDS011;66684;47.568;18.734;2023-04-24T09:19:37;11.65;;;6.78;;
51758;SDS011;66684;47.568;18.734;2023-04-24T09:22:06;9.55;;;7.07;;
51758;SDS011;66684;47.568;18.734;2023-04-24T09:24:33;13.82;;;7.65;;
51758;SDS011;66684;47.568;18.734;2023-04-24T09:27:00;10.82;;;7.30;;
51758;SDS011;66684;47.568;18.734;2023-04-24T09:29:29;8.82;;;7.07;;
51758;SDS011;66684;47.568;18.734;2023-04-24T09:31:55;13.02;;;8.25;;
51758;SDS011;66684;47.568;18.734;2023-04-24T09:34:22;11.48;;;7.30;;
51758;SDS011;66684;47.568;18.734;2023-04-24T09:36:49;11.68;;;7.47;;
51758;SDS011;66684;47.568;18.734;2023-04-24T09:39:16;12.77;;;7.30;;
51758;SDS011;66684;47.568;18.734;2023-04-24T09:41:52;10.68;;;6.53;;
51758;SDS011;66684;47.568;18.734;2023-04-24T09:44:20;10.70;;;7.12;;
51758;SDS011;66684;47.568;18.734;2023-04-24T09:47:05;12.37;;;8.07;;
51758;SDS011;66684;47.568;18.734;2023-04-24T09:49:34;11.75;;;8.70;;
51758;SDS011;66684;47.568;18.734;2023-04-24T09:52:06;11.10;;;9.10;;
51758;SDS011;66684;47.568;18.734;2023-04-24T09:54:33;12.37;;;8.77;;
51758;SDS011;66684;47.568;18.734;2023-04-24T09:56:59;12.27;;;9.45;;
51758;SDS011;66684;47.568;18.734;2023-04-24T09:59:28;14.43;;;9.27;;
51758;SDS011;66684;47.568;18.734;2023-04-24T10:01:54;12.13;;;9.27;;
51758;SDS011;66684;47.568;18.734;2023-04-24T10:06:48;12.60;;;8.75;;
51758;SDS011;66684;47.568;18.734;2023-04-24T10:09:19;14.23;;;9.75;;
51758;SDS011;66684;47.568;18.734;2023-04-24T10:11:48;12.02;;;9.65;;
51758;SDS011;66684;47.568;18.734;2023-04-24T10:14:16;13.52;;;9.85;;
51758;SDS011;66684;47.568;18.734;2023-04-24T10:16:43;14.10;;;10.13;;
51758;SDS011;66684;47.568;18.734;2023-04-24T10:19:10;14.70;;;10.25;;
51758;SDS011;66684;47.568;18.734;2023-04-24T10:21:40;12.90;;;10.07;;
51758;SDS011;66684;47.568;18.734;2023-04-24T10:24:12;14.43;;;9.45;;
51758;SDS011;66684;47.568;18.734;2023-04-24T10:26:40;14.85;;;9.20;;
51758;SDS011;66684;47.568;18.734;2023-04-24T10:29:07;12.43;;;7.57;;
51758;SDS011;66684;47.568;18.734;2023-04-24T10:31:38;13.48;;;10.25;;
51758;SDS011;66684;47.568;18.734;2023-04-24T10:34:05;12.50;;;10.00;;
51758;SDS011;66684;47.568;18.734;2023-04-24T10:36:35;12.32;;;9.70;;
51758;SDS011;66684;47.568;18.734;2023-04-24T10:39:06;13.65;;;9.82;;
51758;SDS011;66684;47.568;18.734;2023-04-24T10:41:36;12.85;;;10.18;;
51758;SDS011;66684;47.568;18.734;2023-04-24T10:44:04;14.35;;;11.02;;
51758;SDS011;66684;47.568;18.734;2023-04-24T10:46:37;15.82;;;10.80;;
51758;SDS011;66684;47.568;18.734;2023-04-24T10:49:05;14.07;;;10.32;;
51758;SDS011;66684;47.568;18.734;2023-04-24T10:54:22;16.35;;;10.30;;
51758;SDS011;66684;47.568;18.734;2023-04-24T10:59:51;6.07;;;3.67;;
51758;SDS011;66684;47.568;18.734;2023-04-24T11:02:38;6.28;;;3.35;;
51758;SDS011;66684;47.568;18.734;2023-04-24T11:05:06;6.15;;;2.92;;
51758;SDS011;66684;47.568;18.734;2023-04-24T11:10:39;4.80;;;2.40;;
51758;SDS011;66684;47.568;18.734;2023-04-24T11:13:21;7.22;;;3.03;;
51758;SDS011;66684;47.568;18.734;2023-04-24T11:16:34;8.32;;;2.80;;
51758;SDS011;66684;47.568;18.734;2023-04-24T11:18:52;5.05;;;2.40;;
51758;SDS011;66684;47.568;18.734;2023-04-24T11:21:28;5.15;;;2.92;;
51758;SDS011;66684;47.568;18.734;2023-04-24T11:23:57;4.80;;;2.22;;
51758;SDS011;66684;47.568;18.734;2023-04-24T11:26:23;4.68;;;2.03;;
51758;SDS011;66684;47.568;18.734;2023-04-24T11:28:55;8.15;;;2.33;;
51758;SDS011;66684;47.568;18.734;2023-04-24T11:31:40;3.28;;;2.35;;
51758;SDS011;66684;47.568;18.734;2023-04-24T11:36:34;6.57;;;2.72;;
51758;SDS011;66684;47.568;18.734;2023-04-24T11:39:01;4.35;;;2.20;;
51758;SDS011;66684;47.568;18.734;2023-04-24T11:41:27;2.85;;;2.25;;
51758;SDS011;66684;47.568;18.734;2023-04-24T11:43:54;6.35;;;2.40;;
51758;SDS011;66684;47.568;18.734;2023-04-24T11:46:21;5.32;;;2.37;;
51758;SDS011;66684;47.568;18.734;2023-04-24T11:48:47;7.57;;;2.67;;
51758;SDS011;66684;47.568;18.734;2023-04-24T11:51:13;6.70;;;2.20;;
51758;SDS011;66684;47.568;18.734;2023-04-24T11:53:40;5.37;;;2.25;;
51758;SDS011;66684;47.568;18.734;2023-04-24T11:56:06;3.58;;;2.42;;
51758;SDS011;66684;47.568;18.734;2023-04-24T11:58:35;5.68;;;2.15;;
51758;SDS011;66684;47.568;18.734;2023-04-24T12:01:01;4.40;;;2.45;;
51758;SDS011;66684;47.568;18.734;2023-04-24T12:03:27;5.22;;;2.53;;
51758;SDS011;66684;47.568;18.734;2023-04-24T12:06:04;4.97;;;2.80;;
51758;SDS011;66684;47.568;18.734;2023-04-24T12:08:34;3.47;;;2.22;;
51758;SDS011;66684;47.568;18.734;2023-04-24T12:11:01;3.50;;;2.40;;
51758;SDS011;66684;47.568;18.734;2023-04-24T12:13:28;4.28;;;2.50;;
51758;SDS011;66684;47.568;18.734;2023-04-24T12:15:54;7.03;;;2.50;;
51758;SDS011;66684;47.568;18.734;2023-04-24T12:18:23;4.95;;;2.70;;
51758;SDS011;66684;47.568;18.734;2023-04-24T12:20:49;6.50;;;2.50;;
51758;SDS011;66684;47.568;18.734;2023-04-24T12:23:15;4.00;;;2.58;;
51758;SDS011;66684;47.568;18.734;2023-04-24T12:25:42;4.35;;;2.30;;
51758;SDS011;66684;47.568;18.734;2023-04-24T12:28:12;8.23;;;2.47;;
51758;SDS011;66684;47.568;18.734;2023-04-24T12:30:42;5.65;;;2.53;;
51758;SDS011;66684;47.568;18.734;2023-04-24T12:33:10;5.47;;;2.40;;
51758;SDS011;66684;47.568;18.734;2023-04-24T12:35:36;3.35;;;2.35;;
51758;SDS011;66684;47.568;18.734;2023-04-24T12:38:06;3.55;;;2.28;;
51758;SDS011;66684;47.568;18.734;2023-04-24T12:40:33;4.68;;;2.62;;
51758;SDS011;66684;47.568;18.734;2023-04-24T12:42:59;6.70;;;2.30;;
51758;SDS011;66684;47.568;18.734;2023-04-24T12:45:25;6.32;;;2.40;;
51758;SDS011;66684;47.568;18.734;2023-04-24T12:47:53;4.25;;;2.50;;
51758;SDS011;66684;47.568;18.734;2023-04-24T12:50:19;5.22;;;2.92;;
51758;SDS011;66684;47.568;18.734;2023-04-24T12:52:45;5.93;;;2.70;;
51758;SDS011;66684;47.568;18.734;2023-04-24T12:55:11;5.78;;;2.65;;
51758;SDS011;66684;47.568;18.734;2023-04-24T12:57:40;7.10;;;3.10;;
51758;SDS011;66684;47.568;18.734;2023-04-24T13:00:06;6.82;;;2.95;;
51758;SDS011;66684;47.568;18.734;2023-04-24T13:02:33;3.85;;;2.83;;
51758;SDS011;66684;47.568;18.734;2023-04-24T13:05:00;5.97;;;2.78;;
51758;SDS011;66684;47.568;18.734;2023-04-24T13:07:26;5.28;;;3.20;;
51758;SDS011;66684;47.568;18.734;2023-04-24T13:09:53;4.32;;;3.20;;
51758;SDS011;66684;47.568;18.734;2023-04-24T13:12:20;4.12;;;3.22;;
51758;SDS011;66684;47.568;18.734;2023-04-24T13:14:46;6.97;;;3.20;;
51758;SDS011;66684;47.568;18.734;2023-04-24T13:17:12;4.85;;;3.00;;
51758;SDS011;66684;47.568;18.734;2023-04-24T13:19:41;4.07;;;2.85;;
51758;SDS011;66684;47.568;18.734;2023-04-24T13:22:09;3.87;;;2.95;;
51758;SDS011;66684;47.568;18.734;2023-04-24T13:24:36;5.32;;;3.87;;
51758;SDS011;66684;47.568;18.734;2023-04-24T13:27:03;6.68;;;4.50;;
51758;SDS011;66684;47.568;18.734;2023-04-24T13:29:29;7.05;;;4.95;;
51758;SDS011;66684;47.568;18.734;2023-04-24T13:31:55;7.03;;;4.82;;
51758;SDS011;66684;47.568;18.734;2023-04-24T13:34:24;5.75;;;4.65;;
51758;SDS011;66684;47.568;18.734;2023-04-24T13:36:55;7.72;;;5.15;;
51758;SDS011;66684;47.568;18.734;2023-04-24T13:39:22;9.77;;;5.18;;
51758;SDS011;66684;47.568;18.734;2023-04-24T13:41:49;7.18;;;4.75;;
51758;SDS011;66684;47.568;18.734;2023-04-24T13:44:15;10.43;;;5.43;;
51758;SDS011;66684;47.568;18.734;2023-04-24T13:46:43;7.82;;;5.07;;
51758;SDS011;66684;47.568;18.734;2023-04-24T13:49:11;8.20;;;5.15;;
51758;SDS011;66684;47.568;18.734;2023-04-24T13:51:37;10.95;;;5.62;;
51758;SDS011;66684;47.568;18.734;2023-04-24T13:54:03;8.52;;;4.93;;
51758;SDS011;66684;47.568;18.734;2023-04-24T13:56:29;8.50;;;5.55;;
51758;SDS011;66684;47.568;18.734;2023-04-24T13:58:55;7.47;;;5.72;;
51758;SDS011;66684;47.568;18.734;2023-04-24T14:01:22;9.32;;;5.75;;
51758;SDS011;66684;47.568;18.734;2023-04-24T14:03:51;7.03;;;4.93;;
51758;SDS011;66684;47.568;18.734;2023-04-24T14:06:18;10.32;;;5.72;;
51758;SDS011;66684;47.568;18.734;2023-04-24T14:08:44;8.70;;;5.78;;
51758;SDS011;66684;47.568;18.734;2023-04-24T14:11:11;8.00;;;6.07;;
51758;SDS011;66684;47.568;18.734;2023-04-24T14:13:37;9.77;;;6.30;;
51758;SDS011;66684;47.568;18.734;2023-04-24T14:16:03;9.38;;;5.85;;
51758;SDS011;66684;47.568;18.734;2023-04-24T14:18:30;7.53;;;6.10;;
51758;SDS011;66684;47.568;18.734;2023-04-24T14:20:56;8.95;;;6.37;;
51758;SDS011;66684;47.568;18.734;2023-04-24T14:23:22;8.23;;;6.75;;
51758;SDS011;66684;47.568;18.734;2023-04-24T14:25:47;9.02;;;7.10;;
51758;SDS011;66684;47.568;18.734;2023-04-24T14:28:16;8.55;;;6.40;;
51758;SDS011;66684;47.568;18.734;2023-04-24T14:30:43;11.32;;;6.70;;
51758;SDS011;66684;47.568;18.734;2023-04-24T14:33:09;8.45;;;6.10;;
51758;SDS011;66684;47.568;18.734;2023-04-24T14:35:35;8.43;;;6.40;;
51758;SDS011;66684;47.568;18.734;2023-04-24T14:38:01;7.78;;;6.35;;